Terminal Aerodrome Forecast
Issued by NWS

Current Version | Previous Version | Text Only | Print | Product List | Glossary Off
Versions: 1 2 3 4 5 6 7 8 9 10 11 12 13 14 15 16 17 18 19 20

000
FTUS41 KRLX 201400 AAA
TAFCKB
TAF AMD
KCKB 201457Z 2015/2112 00000KT P6SM OVC025
     FM201900 04003KT P6SM SCT020 OVC120
     FM210500 00000KT P6SM BKN025
     FM210800 00000KT P6SM BKN018=

USA.gov is the U.S. government's official web portal to all federal, state and local government web resources and services.